Portada
METAR-TAF:

METAR-TAF

Aeroports :

Chandigar, Índia

latitud: 30-40-29N, longitud: 76-47-26E, altitud: 314 m

Observació

L'informe es va fer fa 1 hora i 42 minuts, a les 17:30 UTC
Vent calma
Temperatura 24°C
Humitat 89%
Pressió 1016 hPa
Visibilitat: 3500 m
Cel clar
boirina

METAR: VICG 161730Z 00000KT 3500 BR SKC 24/22 Q1016 NOSIG

Hora: 00:42 (19:12 UTC)

Pronòstic

L'informe es va fer fa 3 hores i 42 minuts, a les 15:30 UTC
Pronòstic vàlid del 16 a les 18 UTC al 17 a les 06 UTC
Vent 2 kt amb direcció variable
Visibilitat: 4000 m
boirina
Temporalment
l' 17 a les 00 UTC al 17 a les 03 UTC
Visibilitat: 3000 m
boirina

TAF: VICG 161530Z 1618/1706 VRB02KT 4000 BR NSC TEMPO 1700/1703 3000 BR

Observacions i pronòstics meteorològics de més de 4000 aeroports (METAR i TAF).

Les estacions disponibles són els punts grocs i vermells al mapa.

Posi el ratolí al punt desitjat per veure el nom de l'estació.

Feu clic per veure les observacions i els pronòstics meteorològics.

Per canviar el mapa: feu clic els botons verds amb una creu de color negre per apropar; al botó verd amb un guió per allunyar la imatge; o en les fletxes verdes per a mapes adjacents.


METAR-TAF: